Airfield :
LOGIN :

Register | Disclaimer

   EN    FR    IT 

 










Legend :    VFR   Marginal VFR   IFR   Intensive IFR   Very Intensive IFR
Visi :
Ceiling :
>= 8 km
>= 3000ft
5 to 8 km
1000 to 3000 ft
1500m to 5 km
500 to 1000 ft
800 to 1500m
200 to 500 ft
< 800m
< 200 ft
Symbols :   Thunderstorms  Fog  Heavy snow  Heavy precipitations  Wind > 20 kt
SIGMETs :     Misc.  Thunderstorms  Icing  Turbulence  Mountain Waves  Volcanic Ashes






- Airport Elevation : 2031 ft


LEGT - Madrid Getafe

CURRENT METAR :
  • 271300Z 23007KT 9999 FEW036 18/13 Q1026

EXPIRED METARs :
  • 271230Z 28005KT 9999 FEW030 19/11 Q1026
  • 271200Z 33005KT 9999 FEW030 18/11 Q1027
  • 271130Z 31006KT CAVOK 18/11 Q1027
  • 271100Z 28006KT CAVOK 16/12 Q1027
  • 271030Z 26006KT CAVOK 15/12 Q1027

TAF TAF LEGT
Valid from the 27 at 12:00 until the 28 at 12:00 UTC


271100Z 2712/2812 31006KT 9999 FEW030 TX18/2715Z TN08/2806Z
TEMPO 2720/2812 1400 BR BCFG BKN002
PROB40
TEMPO 2722/2812 0100 FG VV001



MET'MAP, your aeronautical weather chart ! - Copyright ORBIFLY December 2007 - Disclaimer

ORBIFLY MET'MAP TEAM :

Programming & Development : Alexandra Zaïnal
Concept & original design : Baudouin d'Aumeries
Assistance for programming : Marc-Olivier Méhu
Technical & hardware support : Manuel Goepfert

Contact : metmap@orbifly.com




SOURCES & CREDITS :

   NOAA